Terminal Aerodrome Forecast
Issued by NWS

Home | Current Version | Previous Version | Graphics & Text | Print | Product List | Glossary On
Versions: 1 2 3 4 5 6 7 8 9 10 11 12 13 14 15 16 17 18 19 20 21 22 23
000
FTUS43 KGRB 152000 AAB
TAFCWA
TAF AMD
KCWA 152040Z 1521/1618 15007KT 1/4SM FG OVC003
      TEMPO 1521/1523 1SM -RA BR OVC006
     FM152300 12004KT 3SM -RA BR OVC010
     FM160200 09003KT 2SM -RA BR OVC009
     FM160800 35009KT 2SM -RASN BR OVC009=

USA.gov is the U.S. government's official web portal to all federal, state and local government web resources and services.